createdAt,value
2018-08-28T00:01:52.800Z,5.27
2018-08-28T00:04:21.028Z,5.63
2018-08-28T00:06:49.259Z,5.40
2018-08-28T00:09:17.472Z,5.63
2018-08-28T00:11:45.703Z,5.00
2018-08-28T00:14:13.932Z,4.97
2018-08-28T00:16:42.143Z,5.57
2018-08-28T00:19:10.366Z,4.60
2018-08-28T00:21:38.588Z,5.33
2018-08-28T00:24:06.793Z,5.17
2018-08-28T00:26:35.042Z,5.20
2018-08-28T00:29:03.388Z,5.00
2018-08-28T00:31:31.623Z,5.13
2018-08-28T00:33:59.824Z,4.67
2018-08-28T00:36:28.068Z,4.97
2018-08-28T00:38:56.284Z,4.80
2018-08-28T00:41:24.511Z,4.67
2018-08-28T00:43:52.724Z,5.13
2018-08-28T00:46:20.956Z,4.90
2018-08-28T00:48:49.353Z,4.73
2018-08-28T00:51:17.582Z,4.67
2018-08-28T00:53:45.787Z,4.90
2018-08-28T00:56:14.008Z,4.97
2018-08-28T00:58:42.492Z,4.73
2018-08-28T01:01:10.719Z,4.77
2018-08-28T01:03:38.932Z,4.47
2018-08-28T01:06:07.170Z,4.77
2018-08-28T01:08:35.593Z,4.93
2018-08-28T01:11:03.814Z,4.83
2018-08-28T01:13:32.026Z,4.73
2018-08-28T01:16:00.231Z,5.10
2018-08-28T01:18:28.480Z,4.50
2018-08-28T01:20:56.718Z,4.70
2018-08-28T01:23:25.012Z,4.50
2018-08-28T01:25:53.247Z,5.00
2018-08-28T01:28:21.490Z,4.60
2018-08-28T01:30:49.715Z,4.63
2018-08-28T01:33:17.932Z,4.60
2018-08-28T01:35:46.122Z,5.00
2018-08-28T01:38:14.383Z,5.70
2018-08-28T01:40:42.601Z,5.10
2018-08-28T01:43:16.288Z,4.87
2018-08-28T01:45:44.508Z,4.73
2018-08-28T01:48:12.752Z,4.90
2018-08-28T01:50:40.992Z,4.73
2018-08-28T01:53:09.228Z,5.13
2018-08-28T01:55:37.437Z,4.60
2018-08-28T01:58:05.928Z,4.67
2018-08-28T02:00:34.299Z,5.17
2018-08-28T02:03:02.522Z,5.00
2018-08-28T02:05:30.768Z,5.33
2018-08-28T02:07:59.004Z,5.00
2018-08-28T02:10:27.247Z,5.37
2018-08-28T02:12:55.483Z,5.13
2018-08-28T02:15:23.728Z,4.87
2018-08-28T02:17:51.980Z,5.70
2018-08-28T02:20:20.197Z,5.37
2018-08-28T02:22:48.446Z,5.43
2018-08-28T02:25:16.675Z,5.50
2018-08-28T02:27:44.912Z,5.53
2018-08-28T02:30:13.131Z,5.27
2018-08-28T02:32:41.368Z,5.47
2018-08-28T02:35:09.572Z,4.80
2018-08-28T02:37:37.798Z,5.10
2018-08-28T02:40:06.079Z,5.27
2018-08-28T02:42:34.316Z,5.70
2018-08-28T02:45:02.562Z,5.27
2018-08-28T02:47:30.796Z,5.13
2018-08-28T02:49:59.026Z,4.83
2018-08-28T02:52:27.256Z,5.03
2018-08-28T02:54:55.464Z,5.63
2018-08-28T02:57:23.708Z,5.60
2018-08-28T02:59:51.919Z,5.73
2018-08-28T03:02:20.148Z,5.43
2018-08-28T03:04:48.367Z,5.47
2018-08-28T03:07:16.636Z,5.87
2018-08-28T03:09:44.876Z,5.70
2018-08-28T03:12:13.082Z,5.73
2018-08-28T03:14:41.349Z,5.47
2018-08-28T03:17:09.589Z,5.17
2018-08-28T03:19:37.859Z,5.83
2018-08-28T03:22:06.068Z,5.63
2018-08-28T03:24:34.299Z,5.20
2018-08-28T03:27:02.487Z,6.10
2018-08-28T03:29:30.763Z,5.60
2018-08-28T03:31:58.978Z,4.90
2018-08-28T03:34:27.236Z,5.93
2018-08-28T03:36:55.674Z,6.33
2018-08-28T03:39:24.499Z,6.17
2018-08-28T03:41:52.740Z,5.73
2018-08-28T03:44:20.982Z,6.17
2018-08-28T03:46:49.237Z,6.10
2018-08-28T03:49:17.479Z,6.43
2018-08-28T03:51:45.683Z,5.93
2018-08-28T03:54:13.969Z,6.53
2018-08-28T03:56:42.211Z,5.90
2018-08-28T03:59:10.547Z,6.17
2018-08-28T04:01:38.791Z,5.37
2018-08-28T04:04:07.019Z,6.20
2018-08-28T04:06:35.212Z,5.97
2018-08-28T04:09:03.585Z,6.80
2018-08-28T04:11:31.847Z,6.20
2018-08-28T04:14:00.106Z,6.00
2018-08-28T04:16:28.332Z,6.57
2018-08-28T04:18:56.621Z,6.20
2018-08-28T04:21:24.818Z,6.47
2018-08-28T04:23:53.055Z,6.50
2018-08-28T04:26:21.284Z,6.23
2018-08-28T04:28:49.525Z,6.20
2018-08-28T04:31:17.747Z,6.23
2018-08-28T04:33:45.983Z,6.87
2018-08-28T04:36:14.267Z,6.90
2018-08-28T04:38:42.614Z,6.20
2018-08-28T04:41:11.028Z,6.03
2018-08-28T04:43:39.355Z,6.47
2018-08-28T04:46:07.883Z,6.63
2018-08-28T04:48:36.219Z,6.27
2018-08-28T04:51:04.391Z,6.50
2018-08-28T04:53:32.624Z,6.40
2018-08-28T04:56:00.893Z,5.67
2018-08-28T04:58:29.129Z,6.00
2018-08-28T05:00:57.347Z,6.33
2018-08-28T05:03:25.593Z,5.57
2018-08-28T05:05:53.830Z,6.63
2018-08-28T05:08:22.143Z,5.67
2018-08-28T05:10:50.381Z,5.53
2018-08-28T05:13:18.691Z,5.50
2018-08-28T05:15:47.130Z,6.03
2018-08-28T05:18:15.378Z,7.17
2018-08-28T05:21:03.308Z,6.67
2018-08-28T05:23:31.541Z,6.10
2018-08-28T05:26:00.156Z,5.60
2018-08-28T05:28:28.396Z,6.30
2018-08-28T05:30:56.656Z,5.53
2018-08-28T05:33:26.142Z,5.27
2018-08-28T05:35:54.367Z,5.43
2018-08-28T05:38:22.572Z,6.00
2018-08-28T05:40:50.830Z,5.47
2018-08-28T05:43:19.124Z,5.63
2018-08-28T05:45:49.567Z,5.10
2018-08-28T05:48:17.774Z,6.23
2018-08-28T05:50:46.020Z,6.10
2018-08-28T05:53:18.615Z,6.03
2018-08-28T05:55:46.921Z,6.20
2018-08-28T05:58:15.096Z,6.40
2018-08-28T06:00:43.344Z,5.63
2018-08-28T06:03:11.992Z,5.60
2018-08-28T06:05:40.227Z,5.20
2018-08-28T06:08:08.463Z,5.80
2018-08-28T06:10:37.440Z,5.30
2018-08-28T06:13:05.656Z,4.80
2018-08-28T06:15:33.920Z,5.17
2018-08-28T06:18:02.207Z,5.50
2018-08-28T06:20:30.443Z,5.90
2018-08-28T06:22:58.701Z,5.40
2018-08-28T06:25:26.961Z,5.90
2018-08-28T06:27:55.192Z,5.27
2018-08-28T06:30:23.442Z,5.53
2018-08-28T06:32:51.891Z,5.07
2018-08-28T06:35:20.120Z,4.87
2018-08-28T06:37:48.341Z,4.80
2018-08-28T06:40:16.596Z,4.50
2018-08-28T06:42:44.828Z,4.53
2018-08-28T06:45:13.075Z,5.70
2018-08-28T06:47:41.364Z,4.53
2018-08-28T06:50:09.923Z,4.90
2018-08-28T06:52:38.609Z,5.00
2018-08-28T06:55:07.015Z,4.50
2018-08-28T06:57:35.263Z,4.40
2018-08-28T07:00:03.559Z,4.93
2018-08-28T07:02:31.801Z,4.53
2018-08-28T07:05:00.027Z,4.53
2018-08-28T07:07:28.267Z,4.40
2018-08-28T07:09:56.503Z,4.37
2018-08-28T07:12:24.732Z,3.70
2018-08-28T07:14:53.029Z,3.90
2018-08-28T07:17:21.358Z,5.73
2018-08-28T07:19:49.608Z,3.77
2018-08-28T07:22:17.879Z,3.70
2018-08-28T07:24:46.099Z,3.77
2018-08-28T07:27:14.323Z,3.43
2018-08-28T07:29:42.540Z,3.70
2018-08-28T07:32:10.769Z,3.90
2018-08-28T07:34:39.004Z,3.60
2018-08-28T07:37:07.370Z,3.43
2018-08-28T07:39:35.569Z,3.50
2018-08-28T07:42:03.800Z,4.10
2018-08-28T07:44:32.016Z,3.50
2018-08-28T07:47:01.960Z,3.52
2018-08-28T07:49:30.287Z,3.33
2018-08-28T07:51:58.583Z,3.70
2018-08-28T07:54:26.779Z,3.72
2018-08-28T07:56:55.019Z,3.83
2018-08-28T07:59:23.239Z,3.80
2018-08-28T08:01:51.490Z,3.27
2018-08-28T08:04:19.703Z,4.00
2018-08-28T08:06:47.965Z,3.80
2018-08-28T08:09:16.179Z,3.92
2018-08-28T08:11:44.403Z,3.40
2018-08-28T08:14:12.640Z,3.12
2018-08-28T08:16:40.936Z,3.70
2018-08-28T08:19:09.167Z,3.70
2018-08-28T08:21:37.915Z,3.57
2018-08-28T08:24:06.119Z,3.10
2018-08-28T08:26:34.364Z,3.10
2018-08-28T08:29:02.591Z,3.33
2018-08-28T08:31:30.836Z,3.67
2018-08-28T08:33:59.033Z,3.50
2018-08-28T08:36:27.350Z,3.42
2018-08-28T08:38:55.560Z,3.30
2018-08-28T08:41:23.781Z,2.90
2018-08-28T08:43:51.988Z,3.27
2018-08-28T08:46:20.199Z,3.77
2018-08-28T08:48:48.412Z,3.07
2018-08-28T08:51:16.682Z,2.73
2018-08-28T08:53:44.912Z,3.23
2018-08-28T08:56:13.139Z,2.80
2018-08-28T08:58:41.355Z,3.10
2018-08-28T09:01:09.645Z,3.02
2018-08-28T09:03:37.899Z,2.70
2018-08-28T09:06:06.303Z,2.77
2018-08-28T09:08:34.505Z,2.60
2018-08-28T09:11:02.731Z,3.20
2018-08-28T09:13:31.330Z,2.80
2018-08-28T09:15:59.576Z,2.50
2018-08-28T09:18:27.851Z,2.85
2018-08-28T09:20:56.128Z,2.40
2018-08-28T09:23:24.364Z,2.77
2018-08-28T09:25:52.575Z,2.53
2018-08-28T09:28:20.809Z,2.70
2018-08-28T09:30:49.581Z,2.73
2018-08-28T09:33:17.852Z,2.67
2018-08-28T09:35:46.053Z,3.10
2018-08-28T09:38:14.350Z,2.60
2018-08-28T09:40:42.554Z,2.90
2018-08-28T09:43:10.786Z,2.87
2018-08-28T09:45:39.180Z,3.33
2018-08-28T09:48:07.464Z,2.93
2018-08-28T09:50:35.723Z,3.23
2018-08-28T09:53:04.020Z,3.00
2018-08-28T09:55:32.244Z,3.30
2018-08-28T09:58:00.510Z,3.30
2018-08-28T10:00:30.149Z,3.43
2018-08-28T10:02:59.063Z,3.10
2018-08-28T10:05:27.281Z,2.83
2018-08-28T10:07:55.547Z,3.10
2018-08-28T10:10:23.744Z,3.20
2018-08-28T10:12:52.013Z,3.40
2018-08-28T10:15:20.256Z,3.20
2018-08-28T10:17:48.478Z,3.40
2018-08-28T10:20:16.717Z,3.53
2018-08-28T10:22:45.461Z,3.20
2018-08-28T10:25:13.669Z,3.40
2018-08-28T10:27:41.927Z,3.07
2018-08-28T10:30:10.216Z,3.30
2018-08-28T10:32:38.415Z,3.53
2018-08-28T10:35:06.647Z,3.37
2018-08-28T10:37:34.899Z,4.27
2018-08-28T10:40:03.110Z,4.20
2018-08-28T10:42:31.324Z,3.57
2018-08-28T10:44:59.552Z,3.80
2018-08-28T10:47:27.795Z,3.60
2018-08-28T10:49:56.021Z,3.93
2018-08-28T10:52:24.260Z,4.00
2018-08-28T10:54:52.527Z,3.97
2018-08-28T10:57:20.771Z,3.73
2018-08-28T10:59:49.659Z,4.40
2018-08-28T11:02:17.911Z,4.30
2018-08-28T11:04:46.144Z,4.77
2018-08-28T11:07:14.361Z,4.10
2018-08-28T11:09:42.581Z,3.90
2018-08-28T11:12:10.809Z,4.37
2018-08-28T11:14:39.118Z,4.40
2018-08-28T11:17:07.335Z,3.85
2018-08-28T11:19:35.571Z,4.33
2018-08-28T11:22:03.857Z,4.37
2018-08-28T11:24:32.123Z,4.17
2018-08-28T11:27:00.324Z,4.65
2018-08-28T11:29:29.452Z,4.58
2018-08-28T11:31:57.728Z,4.57
2018-08-28T11:34:25.960Z,4.62
2018-08-28T11:36:54.528Z,4.67
2018-08-28T11:39:22.786Z,4.03
2018-08-28T11:41:51.026Z,4.30
2018-08-28T11:44:19.321Z,4.27
2018-08-28T11:46:47.544Z,4.53
2018-08-28T11:49:15.787Z,4.90
2018-08-28T11:51:44.022Z,5.20
2018-08-28T11:54:12.320Z,4.72
2018-08-28T11:56:40.550Z,4.22
2018-08-28T11:59:08.787Z,4.55
2018-08-28T12:01:37.018Z,4.40
2018-08-28T12:04:05.253Z,4.50
2018-08-28T12:06:33.597Z,4.42
2018-08-28T12:09:01.841Z,4.80
2018-08-28T12:11:30.071Z,4.80
2018-08-28T12:13:58.303Z,4.80
2018-08-28T12:16:26.508Z,4.35
2018-08-28T12:18:54.743Z,4.50
2018-08-28T12:21:22.984Z,4.87
2018-08-28T12:23:51.212Z,4.30
2018-08-28T12:26:19.429Z,4.30
2018-08-28T12:28:47.668Z,4.33
2018-08-28T12:31:15.895Z,4.40
2018-08-28T12:33:44.147Z,4.80
2018-08-28T12:36:12.347Z,4.35
2018-08-28T12:38:40.606Z,4.87
2018-08-28T12:41:08.834Z,5.22
2018-08-28T12:43:37.135Z,4.40
2018-08-28T12:46:05.479Z,4.37
2018-08-28T12:48:33.659Z,4.62
2018-08-28T12:51:01.936Z,4.50
2018-08-28T12:53:30.230Z,4.60
2018-08-28T12:55:58.389Z,5.03
2018-08-28T12:58:26.619Z,5.30
2018-08-28T13:00:54.811Z,4.58
2018-08-28T13:03:23.089Z,4.47
2018-08-28T13:05:51.485Z,4.60
2018-08-28T13:08:20.033Z,4.80
2018-08-28T13:10:48.316Z,5.05
2018-08-28T13:13:16.569Z,4.60
2018-08-28T13:15:44.832Z,5.05
2018-08-28T13:18:13.100Z,4.45
2018-08-28T13:20:41.340Z,5.12
2018-08-28T13:23:09.543Z,5.25
2018-08-28T13:25:37.981Z,4.87
2018-08-28T13:28:06.227Z,4.47
2018-08-28T13:30:34.473Z,5.05
2018-08-28T13:33:02.771Z,4.92
2018-08-28T13:35:30.992Z,4.85
2018-08-28T13:37:59.523Z,4.95
2018-08-28T13:40:27.882Z,6.45
2018-08-28T13:42:56.130Z,4.83
2018-08-28T13:45:24.412Z,5.17
2018-08-28T13:47:52.661Z,5.13
2018-08-28T13:50:21.592Z,5.05
2018-08-28T13:52:49.893Z,4.75
2018-08-28T13:55:18.186Z,4.78
2018-08-28T13:57:46.438Z,5.20
2018-08-28T14:00:14.763Z,5.05
2018-08-28T14:02:43.412Z,4.87
2018-08-28T14:05:11.763Z,5.30
2018-08-28T14:07:39.976Z,5.37
2018-08-28T14:10:08.318Z,4.97
2018-08-28T14:12:36.548Z,4.93
2018-08-28T14:15:04.895Z,5.07
2018-08-28T14:17:33.271Z,5.10
2018-08-28T14:20:01.528Z,5.00
2018-08-28T14:22:29.783Z,4.50
2018-08-28T14:24:57.993Z,5.10
2018-08-28T14:27:26.220Z,5.10
2018-08-28T14:29:54.508Z,5.07
2018-08-28T14:32:22.773Z,5.27
2018-08-28T14:34:51.062Z,4.97
2018-08-28T14:37:19.316Z,5.23
2018-08-28T14:39:47.572Z,4.73
2018-08-28T14:42:15.872Z,5.10
2018-08-28T14:44:44.152Z,5.00
2018-08-28T14:47:12.402Z,5.20
2018-08-28T14:49:40.715Z,5.27
2018-08-28T14:52:08.949Z,4.80
2018-08-28T14:54:37.238Z,4.80
2018-08-28T14:57:05.509Z,4.40
2018-08-28T14:59:33.770Z,4.97
2018-08-28T15:02:02.062Z,5.47
2018-08-28T15:04:30.405Z,5.83
2018-08-28T15:06:58.749Z,5.27
2018-08-28T15:09:26.985Z,5.10
2018-08-28T15:11:55.243Z,4.90
2018-08-28T15:14:23.451Z,5.10
2018-08-28T15:16:51.671Z,4.80
2018-08-28T15:19:19.921Z,4.60
2018-08-28T15:21:48.148Z,5.17
2018-08-28T15:24:16.371Z,5.20
2018-08-28T15:26:44.666Z,4.53
2018-08-28T15:29:12.867Z,4.67
2018-08-28T15:31:41.145Z,4.63
2018-08-28T15:34:09.724Z,4.43
2018-08-28T15:36:37.992Z,4.77
2018-08-28T15:39:06.881Z,4.87
2018-08-28T15:41:35.116Z,5.10
2018-08-28T15:44:03.389Z,4.80
2018-08-28T15:46:31.849Z,4.70
2018-08-28T15:49:00.141Z,4.63
2018-08-28T15:51:29.098Z,4.73
2018-08-28T15:53:57.126Z,4.50
2018-08-28T15:56:25.360Z,4.60
2018-08-28T15:58:53.611Z,5.10
2018-08-28T16:01:21.856Z,4.33
2018-08-28T16:03:50.073Z,4.57
2018-08-28T16:06:18.289Z,4.53
2018-08-28T16:08:46.549Z,4.77
2018-08-28T16:11:14.812Z,4.40
2018-08-28T16:13:43.124Z,4.67
2018-08-28T16:16:11.465Z,4.33
2018-08-28T16:18:39.718Z,4.40
2018-08-28T16:21:08.011Z,4.40
2018-08-28T16:23:38.557Z,4.37
2018-08-28T16:26:06.780Z,4.53
2018-08-28T16:28:35.040Z,4.40
2018-08-28T16:31:03.303Z,4.60
2018-08-28T16:33:31.663Z,4.73
2018-08-28T16:35:59.909Z,4.67
2018-08-28T16:38:28.147Z,4.60
2018-08-28T16:40:56.410Z,4.87
2018-08-28T16:43:24.839Z,4.57
2018-08-28T16:45:53.081Z,4.67
2018-08-28T16:48:22.373Z,4.97
2018-08-28T16:50:50.669Z,4.67
2018-08-28T16:53:19.021Z,4.03
2018-08-28T16:55:47.301Z,4.40
2018-08-28T16:58:15.566Z,4.27
2018-08-28T17:00:43.780Z,4.70
2018-08-28T17:03:12.056Z,4.70
2018-08-28T17:05:40.297Z,4.67
2018-08-28T17:08:08.661Z,4.10
2018-08-28T17:10:36.963Z,4.37
2018-08-28T17:13:05.295Z,4.70
2018-08-28T17:15:33.555Z,4.47
2018-08-28T17:18:01.862Z,4.50
2018-08-28T17:20:30.120Z,4.50
2018-08-28T17:22:58.628Z,4.87
2018-08-28T17:25:26.921Z,4.50
2018-08-28T17:27:55.150Z,4.30
2018-08-28T17:30:23.375Z,4.50
2018-08-28T17:32:51.862Z,4.40
2018-08-28T17:35:20.104Z,4.20
2018-08-28T17:37:48.379Z,4.90
2018-08-28T17:40:16.628Z,4.67
2018-08-28T17:42:44.950Z,4.40
2018-08-28T17:45:13.116Z,4.23
2018-08-28T17:47:41.349Z,4.30
2018-08-28T17:50:09.783Z,4.57
2018-08-28T17:52:38.032Z,4.60
2018-08-28T17:55:06.556Z,5.10
2018-08-28T17:57:35.199Z,4.17
2018-08-28T18:00:03.451Z,4.63
2018-08-28T18:02:31.710Z,4.70
2018-08-28T18:04:59.925Z,4.70
2018-08-28T18:07:28.195Z,4.67
2018-08-28T18:09:56.411Z,4.80
2018-08-28T18:12:24.644Z,4.50
2018-08-28T18:14:52.858Z,4.23
2018-08-28T18:17:21.332Z,4.47
2018-08-28T18:19:49.558Z,5.47
2018-08-28T18:22:17.821Z,4.70
2018-08-28T18:24:46.033Z,4.60
2018-08-28T18:27:14.268Z,4.97
2018-08-28T18:29:42.483Z,4.67
2018-08-28T18:32:11.355Z,4.53
2018-08-28T18:34:39.689Z,5.30
2018-08-28T18:37:07.866Z,5.70
2018-08-28T18:39:36.098Z,5.43
2018-08-28T18:42:04.331Z,5.67
2018-08-28T18:44:32.648Z,5.87
2018-08-28T18:47:02.426Z,7.30
2018-08-28T18:49:30.583Z,9.13
2018-08-28T18:51:59.220Z,9.00
2018-08-28T18:54:27.488Z,8.40
2018-08-28T18:56:55.713Z,7.97
2018-08-28T18:59:23.996Z,9.83
2018-08-28T19:01:52.216Z,12.23
2018-08-28T19:04:20.503Z,11.17
2018-08-28T19:06:48.743Z,10.50
2018-08-28T19:09:17.168Z,10.57
2018-08-28T19:11:45.619Z,10.80
2018-08-28T19:14:13.849Z,9.50
2018-08-28T19:16:42.059Z,10.70
2018-08-28T19:19:11.313Z,11.57
2018-08-28T19:21:39.640Z,11.60
2018-08-28T19:24:08.180Z,12.47
2018-08-28T19:26:36.442Z,11.10
2018-08-28T19:29:04.800Z,12.40
2018-08-28T19:31:33.216Z,11.70
2018-08-28T19:34:01.422Z,12.40
2018-08-28T19:36:29.731Z,11.93
2018-08-28T19:38:57.983Z,11.27
2018-08-28T19:41:26.220Z,11.70
2018-08-28T19:43:55.272Z,10.10
2018-08-28T19:46:23.502Z,9.93
2018-08-28T19:48:51.759Z,10.40
2018-08-28T19:51:20.658Z,11.03
2018-08-28T19:53:49.023Z,10.07
2018-08-28T19:56:17.220Z,10.43
2018-08-28T19:58:45.485Z,10.20
2018-08-28T20:01:13.758Z,9.60
2018-08-28T20:03:42.038Z,9.53
2018-08-28T20:06:10.264Z,9.47
2018-08-28T20:08:38.524Z,9.30
2018-08-28T20:11:06.760Z,9.37
2018-08-28T20:13:35.007Z,8.70
2018-08-28T20:16:03.265Z,7.47
2018-08-28T20:18:31.615Z,6.73
2018-08-28T20:20:59.828Z,6.80
2018-08-28T20:23:28.190Z,7.33
2018-08-28T20:25:56.404Z,7.20
2018-08-28T20:28:24.712Z,6.90
2018-08-28T20:30:53.004Z,6.10
2018-08-28T20:33:21.235Z,6.73
2018-08-28T20:35:49.543Z,6.83
2018-08-28T20:38:17.839Z,7.50
2018-08-28T20:40:46.069Z,7.10
2018-08-28T20:43:14.332Z,6.90
2018-08-28T20:45:42.584Z,6.20
2018-08-28T20:48:10.827Z,6.60
2018-08-28T20:50:39.099Z,5.80
2018-08-28T20:53:07.413Z,5.93
2018-08-28T20:55:35.715Z,6.33
2018-08-28T20:58:03.988Z,6.33
2018-08-28T21:00:35.164Z,6.20
2018-08-28T21:03:03.692Z,6.27
2018-08-28T21:05:31.940Z,6.23
2018-08-28T21:08:01.206Z,5.90
2018-08-28T21:10:30.124Z,6.30
2018-08-28T21:12:58.724Z,6.03
2018-08-28T21:15:26.932Z,6.30
2018-08-28T21:17:55.171Z,6.80
2018-08-28T21:20:23.464Z,6.17
2018-08-28T21:22:51.722Z,6.17
2018-08-28T21:25:19.944Z,6.77
2018-08-28T21:27:48.168Z,6.70
2018-08-28T21:30:16.398Z,6.87
2018-08-28T21:32:44.756Z,6.93
2018-08-28T21:35:13.006Z,6.50
2018-08-28T21:37:41.221Z,6.97
2018-08-28T21:40:09.529Z,6.73
2018-08-28T21:42:37.772Z,6.63
2018-08-28T21:45:06.047Z,7.00
2018-08-28T21:47:34.285Z,6.80
2018-08-28T21:50:02.540Z,6.73
2018-08-28T21:52:30.772Z,6.77
2018-08-28T21:54:59.039Z,7.47
2018-08-28T21:57:27.291Z,7.50
2018-08-28T21:59:55.510Z,7.60
2018-08-28T22:02:23.754Z,6.83
2018-08-28T22:04:51.992Z,6.27
2018-08-28T22:07:25.529Z,7.00
2018-08-28T22:09:53.756Z,6.67
2018-08-28T22:12:21.988Z,6.80
2018-08-28T22:14:50.206Z,6.97
2018-08-28T22:17:18.410Z,6.23
2018-08-28T22:19:46.647Z,6.77
2018-08-28T22:22:14.877Z,6.70
2018-08-28T22:24:43.106Z,6.30
2018-08-28T22:27:11.331Z,6.30
2018-08-28T22:29:39.620Z,6.77
2018-08-28T22:32:07.808Z,6.20
2018-08-28T22:34:36.049Z,6.57
2018-08-28T22:37:04.275Z,6.13
2018-08-28T22:39:32.519Z,6.50
2018-08-28T22:42:00.749Z,6.30
2018-08-28T22:44:29.005Z,6.50
2018-08-28T22:46:57.291Z,6.00
2018-08-28T22:49:25.531Z,6.90
2018-08-28T22:51:53.793Z,6.50
2018-08-28T22:54:22.036Z,6.10
2018-08-28T22:56:50.247Z,6.47
2018-08-28T22:59:18.455Z,6.00
2018-08-28T23:01:46.763Z,5.60
2018-08-28T23:04:15.001Z,6.07
2018-08-28T23:06:43.247Z,6.57
2018-08-28T23:09:11.452Z,6.60
2018-08-28T23:11:39.696Z,6.47
2018-08-28T23:14:07.919Z,6.17
2018-08-28T23:16:36.147Z,6.10
2018-08-28T23:19:04.430Z,5.97
2018-08-28T23:21:32.649Z,6.07
2018-08-28T23:24:00.885Z,5.70
2018-08-28T23:26:29.128Z,6.17
2018-08-28T23:28:57.359Z,6.10
2018-08-28T23:31:25.599Z,6.17
2018-08-28T23:33:53.816Z,7.07
2018-08-28T23:36:22.035Z,5.80
2018-08-28T23:38:50.231Z,6.37
2018-08-28T23:41:18.452Z,6.10
2018-08-28T23:43:46.647Z,5.87
2018-08-28T23:46:14.916Z,5.70
2018-08-28T23:48:43.146Z,6.43
2018-08-28T23:51:11.371Z,5.93
2018-08-28T23:53:39.583Z,5.97
2018-08-28T23:56:08.027Z,5.77
2018-08-28T23:58:36.229Z,6.10
